createdAt,value
2018-05-01T00:01:47.220Z,99789.13
2018-05-01T00:04:13.944Z,99778.48
2018-05-01T00:06:39.929Z,99776.84
2018-05-01T00:09:05.710Z,99773.70
2018-05-01T00:11:31.445Z,99764.72
2018-05-01T00:13:57.392Z,99760.07
2018-05-01T00:16:23.172Z,99764.08
2018-05-01T00:18:48.904Z,99765.41
2018-05-01T00:21:14.632Z,99758.23
2018-05-01T00:23:40.391Z,99753.96
2018-05-01T00:26:06.552Z,99753.52
2018-05-01T00:28:32.303Z,99756.09
2018-05-01T00:30:58.123Z,99755.41
2018-05-01T00:33:23.879Z,99759.30
2018-05-01T00:35:49.609Z,99756.03
2018-05-01T00:38:15.346Z,99756.80
2018-05-01T00:40:41.084Z,99749.27
2018-05-01T00:43:06.886Z,99741.02
2018-05-01T00:45:32.621Z,99744.06
2018-05-01T00:47:58.436Z,99745.84
2018-05-01T00:50:24.156Z,99738.77
2018-05-01T00:52:49.939Z,99739.06
2018-05-01T00:55:15.676Z,99733.48
2018-05-01T00:57:41.408Z,99732.22
2018-05-01T01:00:07.228Z,99726.30
2018-05-01T01:02:33.076Z,99723.91
2018-05-01T01:04:58.831Z,99721.70
2018-05-01T01:07:24.629Z,99722.66
2018-05-01T01:09:50.408Z,99727.19
2018-05-01T01:12:16.644Z,99722.91
2018-05-01T01:14:42.467Z,99726.73
2018-05-01T01:17:08.185Z,99725.19
2018-05-01T01:19:33.925Z,99726.50
2018-05-01T01:21:59.637Z,99719.75
2018-05-01T01:24:25.375Z,99729.02
2018-05-01T01:26:51.104Z,99730.55
2018-05-01T01:29:16.823Z,99729.38
2018-05-01T01:31:42.539Z,99722.02
2018-05-01T01:34:08.264Z,99725.70
2018-05-01T01:36:33.856Z,99719.68
2018-05-01T01:38:59.623Z,99728.73
2018-05-01T01:41:25.253Z,99726.20
2018-05-01T01:43:50.864Z,99722.98
2018-05-01T01:46:16.460Z,99741.44
2018-05-01T01:48:42.056Z,99749.22
2018-05-01T01:51:07.657Z,99761.76
2018-05-01T01:53:33.260Z,99761.67
2018-05-01T01:55:58.863Z,99765.65
2018-05-01T01:58:24.476Z,99767.26
2018-05-01T02:00:50.079Z,99780.19
2018-05-01T02:03:15.675Z,99776.60
2018-05-01T02:05:41.276Z,99771.08
2018-05-01T02:08:06.884Z,99772.68
2018-05-01T02:10:32.495Z,99778.60
2018-05-01T02:12:58.091Z,99777.73
2018-05-01T02:15:23.704Z,99772.19
2018-05-01T02:17:49.331Z,99769.31
2018-05-01T02:20:14.957Z,99767.62
2018-05-01T02:22:40.565Z,99773.03
2018-05-01T02:25:06.184Z,99769.27
2018-05-01T02:27:31.780Z,99765.99
2018-05-01T02:29:57.372Z,99765.67
2018-05-01T02:32:22.985Z,99761.48
2018-05-01T02:34:48.591Z,99760.95
2018-05-01T02:37:14.208Z,99763.02
2018-05-01T02:39:39.825Z,99755.98
2018-05-01T02:42:05.443Z,99756.22
2018-05-01T02:44:31.053Z,99759.99
2018-05-01T02:46:56.669Z,99763.77
2018-05-01T02:49:22.286Z,99759.86
2018-05-01T02:51:47.904Z,99757.98
2018-05-01T02:54:13.521Z,99765.22
2018-05-01T02:56:39.182Z,99764.85
2018-05-01T02:59:04.793Z,99767.11
2018-05-01T03:01:30.409Z,99772.20
2018-05-01T03:03:56.024Z,99770.25
2018-05-01T03:06:21.646Z,99778.99
2018-05-01T03:08:47.252Z,99774.64
2018-05-01T03:11:12.871Z,99774.27
2018-05-01T03:13:38.489Z,99774.78
2018-05-01T03:16:04.093Z,99774.33
2018-05-01T03:18:29.711Z,99766.61
2018-05-01T03:20:55.304Z,99761.00
2018-05-01T03:23:20.927Z,99763.20
2018-05-01T03:25:46.537Z,99762.88
2018-05-01T03:28:12.150Z,99767.36
2018-05-01T03:30:37.752Z,99759.44
2018-05-01T03:33:03.372Z,99760.20
2018-05-01T03:35:28.988Z,99751.02
2018-05-01T03:37:54.610Z,99753.95
2018-05-01T03:40:20.216Z,99752.45
2018-05-01T03:42:45.832Z,99752.95
2018-05-01T03:45:11.448Z,99747.05
2018-05-01T03:47:37.072Z,99753.08
2018-05-01T03:50:02.683Z,99754.65
2018-05-01T03:52:28.319Z,99762.19
2018-05-01T03:54:53.922Z,99758.55
2018-05-01T03:57:19.525Z,99760.86
2018-05-01T03:59:45.141Z,99760.81
2018-05-01T04:02:10.819Z,99765.29
2018-05-01T04:04:36.388Z,99767.99
2018-05-01T04:07:02.008Z,99775.98
2018-05-01T04:09:27.627Z,99782.64
2018-05-01T04:11:53.240Z,99781.55
2018-05-01T04:14:18.858Z,99774.27
2018-05-01T04:16:44.472Z,99785.45
2018-05-01T04:19:10.092Z,99782.36
2018-05-01T04:21:35.700Z,99776.12
2018-05-01T04:24:01.312Z,99790.01
2018-05-01T04:26:26.914Z,99788.87
2018-05-01T04:28:52.552Z,99808.86
2018-05-01T04:31:18.171Z,99802.55
2018-05-01T04:33:43.790Z,99799.59
2018-05-01T04:36:09.404Z,99789.76
2018-05-01T04:38:35.013Z,99804.55
2018-05-01T04:41:00.622Z,99793.56
2018-05-01T04:43:26.216Z,99792.35
2018-05-01T04:45:51.845Z,99795.88
2018-05-01T04:48:17.476Z,99796.38
2018-05-01T04:50:43.108Z,99800.81
2018-05-01T04:53:08.726Z,99801.98
2018-05-01T04:55:34.340Z,99804.23
2018-05-01T04:57:59.962Z,99803.69
2018-05-01T05:00:25.580Z,99803.08
2018-05-01T05:02:51.189Z,99799.62
2018-05-01T05:05:16.830Z,99808.30
2018-05-01T05:07:42.443Z,99809.23
2018-05-01T05:10:08.070Z,99799.17
2018-05-01T05:12:33.690Z,99799.29
2018-05-01T05:14:59.336Z,99799.19
2018-05-01T05:17:24.936Z,99802.20
2018-05-01T05:19:50.564Z,99802.22
2018-05-01T05:22:16.180Z,99811.23
2018-05-01T05:24:41.801Z,99811.55
2018-05-01T05:27:07.416Z,99819.91
2018-05-01T05:29:33.048Z,99820.11
2018-05-01T05:31:58.668Z,99808.84
2018-05-01T05:34:24.270Z,99815.32
2018-05-01T05:36:49.888Z,99821.53
2018-05-01T05:39:15.500Z,99815.77
2018-05-01T05:41:41.119Z,99819.12
2018-05-01T05:44:06.729Z,99822.69
2018-05-01T05:46:32.345Z,99813.07
2018-05-01T05:48:58.068Z,99812.87
2018-05-01T05:51:23.587Z,99814.17
2018-05-01T05:53:49.212Z,99816.38
2018-05-01T05:56:14.829Z,99807.31
2018-05-01T05:58:40.445Z,99805.25
2018-05-01T06:01:06.095Z,99806.12
2018-05-01T06:03:31.778Z,99803.98
2018-05-01T06:05:57.336Z,99799.52
2018-05-01T06:08:22.956Z,99810.20
2018-05-01T06:10:48.624Z,99828.53
2018-05-01T06:13:14.235Z,99823.62
2018-05-01T06:15:39.861Z,99823.87
2018-05-01T06:18:05.477Z,99831.08
2018-05-01T06:20:31.110Z,99827.95
2018-05-01T06:22:56.724Z,99831.90
2018-05-01T06:25:22.336Z,99837.75
2018-05-01T06:27:47.961Z,99827.32
2018-05-01T06:30:13.584Z,99824.77
2018-05-01T06:32:39.221Z,99814.49
2018-05-01T06:35:04.832Z,99809.06
2018-05-01T06:37:30.497Z,99814.81
2018-05-01T06:39:56.076Z,99815.34
2018-05-01T06:42:21.691Z,99818.33
2018-05-01T06:44:47.306Z,99811.44
2018-05-01T06:47:12.924Z,99811.98
2018-05-01T06:49:38.537Z,99810.61
2018-05-01T06:52:04.182Z,99810.27
2018-05-01T06:54:29.792Z,99817.53
2018-05-01T06:56:55.408Z,99815.93
2018-05-01T06:59:21.021Z,99815.34
2018-05-01T07:01:46.636Z,99817.81
2018-05-01T07:04:12.260Z,99819.42
2018-05-01T07:06:37.885Z,99816.10
2018-05-01T07:09:03.500Z,99819.75
2018-05-01T07:11:29.120Z,99826.67
2018-05-01T07:13:54.744Z,99816.90
2018-05-01T07:16:20.371Z,99819.66
2018-05-01T07:18:45.999Z,99816.06
2018-05-01T07:21:11.631Z,99819.62
2018-05-01T07:23:37.233Z,99816.10
2018-05-01T07:26:02.847Z,99810.31
2018-05-01T07:28:28.448Z,99794.30
2018-05-01T07:30:54.052Z,99807.22
2018-05-01T07:33:19.665Z,99803.80
2018-05-01T07:35:45.264Z,99805.90
2018-05-01T07:38:10.883Z,99807.95
2018-05-01T07:40:36.490Z,99798.13
2018-05-01T07:43:02.118Z,99802.97
2018-05-01T07:45:27.733Z,99804.67
2018-05-01T07:47:53.349Z,99800.39
2018-05-01T07:50:18.948Z,99807.70
2018-05-01T07:52:44.577Z,99807.05
2018-05-01T07:55:10.196Z,99808.19
2018-05-01T07:57:35.823Z,99808.14
2018-05-01T08:00:01.445Z,99806.88
2018-05-01T08:02:27.077Z,99810.89
2018-05-01T08:04:52.689Z,99811.00
2018-05-01T08:07:18.295Z,99815.50
2018-05-01T08:09:43.888Z,99804.06
2018-05-01T08:12:09.547Z,99806.17
2018-05-01T08:14:35.103Z,99804.80
2018-05-01T08:17:00.719Z,99810.06
2018-05-01T08:19:26.336Z,99806.17
2018-05-01T08:21:51.958Z,99810.85
2018-05-01T08:24:17.609Z,99817.55
2018-05-01T08:26:43.190Z,99805.64
2018-05-01T08:29:08.805Z,99807.88
2018-05-01T08:31:34.443Z,99819.80
2018-05-01T08:34:00.052Z,99818.88
2018-05-01T08:36:25.672Z,99819.53
2018-05-01T08:38:51.296Z,99819.14
2018-05-01T08:41:16.918Z,99818.27
2018-05-01T08:43:42.540Z,99823.41
2018-05-01T08:46:08.157Z,99814.41
2018-05-01T08:48:33.776Z,99836.62
2018-05-01T08:50:59.372Z,99824.52
2018-05-01T08:53:24.981Z,99823.25
2018-05-01T08:55:50.587Z,99821.28
2018-05-01T08:58:16.203Z,99825.53
2018-05-01T09:00:41.803Z,99829.05
2018-05-01T09:03:07.434Z,99833.16
2018-05-01T09:05:33.044Z,99832.94
2018-05-01T09:07:58.670Z,99841.39
2018-05-01T09:10:24.294Z,99853.27
2018-05-01T09:12:49.913Z,99842.63
2018-05-01T09:15:15.540Z,99855.45
2018-05-01T09:17:41.245Z,99849.72
2018-05-01T09:20:06.801Z,99859.76
2018-05-01T09:22:32.408Z,99859.75
2018-05-01T09:24:58.027Z,99857.17
2018-05-01T09:27:23.648Z,99847.36
2018-05-01T09:29:49.269Z,99864.53
2018-05-01T09:32:14.889Z,99861.38
2018-05-01T09:34:40.501Z,99854.72
2018-05-01T09:37:06.123Z,99857.53
2018-05-01T09:39:31.758Z,99872.13
2018-05-01T09:41:57.457Z,99875.16
2018-05-01T09:44:23.009Z,99877.00
2018-05-01T09:46:48.643Z,99864.56
2018-05-01T09:49:14.252Z,99878.10
2018-05-01T09:51:39.862Z,99892.96
2018-05-01T09:54:05.608Z,99884.55
2018-05-01T09:56:31.345Z,99888.98
2018-05-01T09:58:57.077Z,99887.17
2018-05-01T10:01:22.804Z,99893.05
2018-05-01T10:03:48.560Z,99898.92
2018-05-01T10:06:14.292Z,99898.62
2018-05-01T10:08:40.033Z,99897.83
2018-05-01T10:11:05.757Z,99913.57
2018-05-01T10:13:31.509Z,99902.57
2018-05-01T10:15:57.240Z,99904.06
2018-05-01T10:18:22.971Z,99908.92
2018-05-01T10:20:48.702Z,99902.09
2018-05-01T10:23:14.445Z,99926.69
2018-05-01T10:25:40.188Z,99923.05
2018-05-01T10:28:05.941Z,99922.13
2018-05-01T10:30:31.687Z,99926.64
2018-05-01T10:32:57.458Z,99930.63
2018-05-01T10:35:23.205Z,99939.76
2018-05-01T10:37:48.960Z,99942.43
2018-05-01T10:40:14.695Z,99934.41
2018-05-01T10:42:40.435Z,99938.88
2018-05-01T10:45:06.165Z,99944.75
2018-05-01T10:47:31.904Z,99951.38
2018-05-01T10:49:57.653Z,99973.04
2018-05-01T10:52:23.412Z,99960.98
2018-05-01T10:54:49.135Z,99965.59
2018-05-01T10:57:14.864Z,99972.05
2018-05-01T10:59:40.609Z,99971.12
2018-05-01T11:02:06.349Z,99958.88
2018-05-01T11:04:32.104Z,99977.35
2018-05-01T11:06:57.841Z,99981.60
2018-05-01T11:09:23.658Z,99986.22
2018-05-01T11:11:49.326Z,99991.35
2018-05-01T11:14:15.069Z,99993.80
2018-05-01T11:16:40.820Z,99997.80
2018-05-01T11:19:06.558Z,99996.88
2018-05-01T11:21:32.296Z,99988.63
2018-05-01T11:23:58.038Z,99984.81
2018-05-01T11:26:23.781Z,100012.02
2018-05-01T11:28:49.532Z,100006.97
2018-05-01T11:31:15.875Z,100001.53
2018-05-01T11:33:41.729Z,100023.91
2018-05-01T11:36:07.400Z,100021.31
2018-05-01T11:38:33.137Z,100027.50
2018-05-01T11:40:58.881Z,100043.44
2018-05-01T11:43:24.624Z,100054.80
2018-05-01T11:45:50.345Z,100054.98
2018-05-01T11:48:16.101Z,100061.08
2018-05-01T11:50:41.825Z,100058.54
2018-05-01T11:53:07.593Z,100061.42
2018-05-01T11:55:33.333Z,100074.60
2018-05-01T11:57:59.088Z,100068.72
2018-05-01T12:00:24.836Z,100073.64
2018-05-01T12:02:50.560Z,100078.14
2018-05-01T12:05:16.309Z,100086.66
2018-05-01T12:07:42.058Z,100094.56
2018-05-01T12:10:07.808Z,100103.67
2018-05-01T12:12:33.548Z,100115.52
2018-05-01T12:14:59.281Z,100114.20
2018-05-01T12:17:25.013Z,100124.30
2018-05-01T12:19:50.764Z,100125.58
2018-05-01T12:22:16.493Z,100133.48
2018-05-01T12:24:42.236Z,100126.94
2018-05-01T12:27:07.960Z,100147.62
2018-05-01T12:29:33.695Z,100159.83
2018-05-01T12:31:59.428Z,100158.20
2018-05-01T12:34:25.167Z,100171.95
2018-05-01T12:36:51.019Z,100184.59
2018-05-01T12:39:16.645Z,100187.38
2018-05-01T12:41:42.383Z,100182.45
2018-05-01T12:44:08.154Z,100194.92
2018-05-01T12:46:33.883Z,100199.80
2018-05-01T12:48:59.630Z,100213.16
2018-05-01T12:51:25.358Z,100209.16
2018-05-01T12:53:51.108Z,100222.22
2018-05-01T12:56:16.852Z,100239.43
2018-05-01T12:58:42.615Z,100237.31
2018-05-01T13:01:08.344Z,100240.05
2018-05-01T13:03:34.071Z,100244.28
2018-05-01T13:06:31.828Z,100259.02
2018-05-01T13:08:58.716Z,100266.48
2018-05-01T13:11:25.609Z,100274.98
2018-05-01T13:13:52.518Z,100281.61
2018-05-01T13:16:19.516Z,100294.39
2018-05-01T13:18:46.393Z,100292.39
2018-05-01T13:21:13.289Z,100307.77
2018-05-01T13:23:40.158Z,100321.01
2018-05-01T13:26:07.046Z,100316.45
2018-05-01T13:28:33.915Z,100310.09
2018-05-01T13:31:00.930Z,100324.83
2018-05-01T13:33:27.809Z,100326.36
2018-05-01T13:35:54.880Z,100321.19
2018-05-01T13:38:21.888Z,100333.12
2018-05-01T13:40:48.782Z,100345.41
2018-05-01T13:43:15.660Z,100348.77
2018-05-01T13:45:42.564Z,100357.19
2018-05-01T13:48:09.461Z,100353.91
2018-05-01T13:50:36.400Z,100359.73
2018-05-01T13:53:03.264Z,100367.23
2018-05-01T13:55:30.153Z,100368.98
2018-05-01T13:57:57.061Z,100374.12
2018-05-01T14:00:23.955Z,100379.16
2018-05-01T14:02:50.845Z,100386.11
2018-05-01T14:05:17.748Z,100393.17
2018-05-01T14:07:44.656Z,100383.88
2018-05-01T14:10:11.537Z,100387.34
2018-05-01T14:12:38.407Z,100383.62
2018-05-01T14:15:05.305Z,100394.16
2018-05-01T14:17:32.176Z,100395.17
2018-05-01T14:19:59.060Z,100395.17
2018-05-01T14:22:25.936Z,100401.36
2018-05-01T14:24:52.820Z,100402.23
2018-05-01T14:27:19.713Z,100410.71
2018-05-01T14:29:46.604Z,100426.22
2018-05-01T14:32:20.279Z,100413.55
2018-05-01T14:34:47.185Z,100423.69
2018-05-01T14:37:14.091Z,100443.30
2018-05-01T14:39:40.980Z,100438.47
2018-05-01T14:42:07.876Z,100437.59
2018-05-01T14:44:34.734Z,100437.31
2018-05-01T14:47:01.636Z,100441.66
2018-05-01T14:49:28.533Z,100448.39
2018-05-01T14:51:55.420Z,100445.04
2018-05-01T14:54:22.304Z,100439.61
2018-05-01T14:56:49.188Z,100441.56
2018-05-01T14:59:16.089Z,100444.50
2018-05-01T15:01:42.994Z,100450.02
2018-05-01T15:04:09.866Z,100457.45
2018-05-01T15:06:36.778Z,100460.48
2018-05-01T15:09:04.425Z,100470.55
2018-05-01T15:11:31.228Z,100471.55
2018-05-01T15:13:58.121Z,100469.11
2018-05-01T15:16:25.010Z,100477.06
2018-05-01T15:18:51.875Z,100478.17
2018-05-01T15:21:18.759Z,100488.35
2018-05-01T15:23:45.656Z,100489.69
2018-05-01T15:26:12.540Z,100493.28
2018-05-01T15:28:39.408Z,100492.61
2018-05-01T15:31:06.305Z,100481.59
2018-05-01T15:33:33.168Z,100494.91
2018-05-01T15:36:00.045Z,100504.55
2018-05-01T15:38:26.921Z,100511.56
2018-05-01T15:40:53.797Z,100518.97
2018-05-01T15:43:20.689Z,100521.73
2018-05-01T15:45:47.591Z,100528.36
2018-05-01T15:48:14.468Z,100544.52
2018-05-01T15:50:41.357Z,100535.20
2018-05-01T15:53:08.265Z,100542.27
2018-05-01T15:55:35.144Z,100544.88
2018-05-01T15:58:02.052Z,100556.55
2018-05-01T16:00:28.935Z,100567.92
2018-05-01T16:02:55.816Z,100570.15
2018-05-01T16:05:22.705Z,100584.95
2018-05-01T16:07:49.577Z,100586.65
2018-05-01T16:10:16.484Z,100609.45
2018-05-01T16:12:43.364Z,100602.28
2018-05-01T16:15:10.268Z,100613.58
2018-05-01T16:17:37.167Z,100611.23
2018-05-01T16:20:04.084Z,100621.28
2018-05-01T16:22:30.972Z,100614.70
2018-05-01T16:24:57.856Z,100637.47
2018-05-01T16:27:24.768Z,100632.85
2018-05-01T16:29:51.685Z,100637.73
2018-05-01T16:32:18.597Z,100645.18
2018-05-01T16:34:45.472Z,100651.81
2018-05-01T16:37:12.368Z,100653.52
2018-05-01T16:39:39.265Z,100662.34
2018-05-01T16:42:06.164Z,100663.22
2018-05-01T16:44:33.040Z,100671.03
2018-05-01T16:46:59.929Z,100676.78
2018-05-01T16:49:26.792Z,100672.42
2018-05-01T16:51:53.692Z,100678.08
2018-05-01T16:54:20.578Z,100682.13
2018-05-01T16:56:47.463Z,100687.68
2018-05-01T16:59:14.345Z,100693.86
2018-05-01T17:01:41.239Z,100699.98
2018-05-01T17:04:08.159Z,100699.13
2018-05-01T17:06:35.040Z,100718.43
2018-05-01T17:09:01.928Z,100702.61
2018-05-01T17:11:29.246Z,100710.08
2018-05-01T17:13:56.308Z,100710.46
2018-05-01T17:16:23.211Z,100710.88
2018-05-01T17:18:50.125Z,100727.08
2018-05-01T17:21:17.001Z,100725.70
2018-05-01T17:23:43.861Z,100729.69
2018-05-01T17:26:10.850Z,100731.52
2018-05-01T17:28:37.926Z,100731.92
2018-05-01T17:31:04.844Z,100743.72
2018-05-01T17:33:31.733Z,100746.28
2018-05-01T17:35:58.594Z,100751.59
2018-05-01T17:38:25.480Z,100758.17
2018-05-01T17:40:52.407Z,100757.23
2018-05-01T17:43:19.280Z,100760.34
2018-05-01T17:45:46.255Z,100769.10
2018-05-01T17:48:13.147Z,100759.01
2018-05-01T17:50:40.036Z,100783.13
2018-05-01T17:53:06.941Z,100780.16
2018-05-01T17:55:33.821Z,100782.33
2018-05-01T17:58:00.719Z,100787.06
2018-05-01T18:00:27.604Z,100799.39
2018-05-01T18:02:54.488Z,100794.09
2018-05-01T18:05:21.390Z,100805.07
2018-05-01T18:07:48.264Z,100814.28
2018-05-01T18:10:15.139Z,100815.56
2018-05-01T18:12:42.164Z,100819.16
2018-05-01T18:15:08.924Z,100823.31
2018-05-01T18:17:35.829Z,100828.23
2018-05-01T18:20:02.725Z,100836.87
2018-05-01T18:22:29.612Z,100838.23
2018-05-01T18:24:56.492Z,100838.27
2018-05-01T18:27:23.394Z,100844.89
2018-05-01T18:29:50.276Z,100840.14
2018-05-01T18:32:17.153Z,100848.55
2018-05-01T18:34:44.033Z,100850.38
2018-05-01T18:37:10.921Z,100860.52
2018-05-01T18:39:37.806Z,100867.66
2018-05-01T18:42:04.692Z,100867.73
2018-05-01T18:44:31.576Z,100868.59
2018-05-01T18:46:58.463Z,100876.52
2018-05-01T18:49:25.341Z,100888.03
2018-05-01T18:51:52.224Z,100885.06
2018-05-01T18:54:19.104Z,100893.80
2018-05-01T18:56:45.976Z,100895.59
2018-05-01T18:59:12.870Z,100904.79
2018-05-01T19:01:39.789Z,100907.42
2018-05-01T19:04:06.673Z,100914.88
2018-05-01T19:06:33.547Z,100916.23
2018-05-01T19:09:00.472Z,100935.02
2018-05-01T19:11:27.364Z,100940.35
2018-05-01T19:13:54.247Z,100936.05
2018-05-01T19:16:21.181Z,100944.38
2018-05-01T19:18:48.012Z,100946.27
2018-05-01T19:21:14.911Z,100955.84
2018-05-01T19:23:41.785Z,100960.72
2018-05-01T19:26:08.696Z,100965.13
2018-05-01T19:28:35.587Z,100961.66
2018-05-01T19:31:02.470Z,100963.91
2018-05-01T19:33:29.381Z,100968.73
2018-05-01T19:35:56.275Z,100968.29
2018-05-01T19:38:23.177Z,100971.41
2018-05-01T19:40:50.092Z,100977.96
2018-05-01T19:43:16.975Z,100979.71
2018-05-01T19:45:43.848Z,100983.72
2018-05-01T19:48:10.752Z,100990.70
2018-05-01T19:50:37.632Z,100987.19
2018-05-01T19:53:04.516Z,100989.81
2018-05-01T19:55:31.399Z,101001.20
2018-05-01T19:57:58.280Z,100996.39
2018-05-01T20:00:25.156Z,100996.83
2018-05-01T20:02:52.055Z,101003.83
2018-05-01T20:05:18.941Z,100996.41
2018-05-01T20:07:45.840Z,101004.73
2018-05-01T20:10:12.713Z,101006.49
2018-05-01T20:12:39.596Z,101007.38
2018-05-01T20:15:06.484Z,101009.14
2018-05-01T20:17:33.372Z,101005.63
2018-05-01T20:20:00.297Z,101007.82
2018-05-01T20:22:27.140Z,101021.87
2018-05-01T20:24:54.029Z,101017.06
2018-05-01T20:27:20.917Z,101008.33
2018-05-01T20:29:47.804Z,101022.77
2018-05-01T20:32:14.803Z,101024.56
2018-05-01T20:34:41.692Z,101024.13
2018-05-01T20:37:08.577Z,101022.38
2018-05-01T20:39:35.465Z,101024.10
2018-05-01T20:42:02.330Z,101027.59
2018-05-01T20:44:29.265Z,101028.48
2018-05-01T20:46:56.168Z,101028.92
2018-05-01T20:49:23.049Z,101032.41
2018-05-01T20:51:49.921Z,101028.03
2018-05-01T20:54:16.796Z,101031.55
2018-05-01T20:56:43.855Z,101030.69
2018-05-01T20:59:12.120Z,101030.27
2018-05-01T21:01:39.699Z,101027.64
2018-05-01T21:04:06.915Z,101032.89
2018-05-01T21:06:33.957Z,101021.08
2018-05-01T21:09:01.290Z,101017.61
2018-05-01T21:11:28.185Z,101014.10
2018-05-01T21:13:55.091Z,101011.96
2018-05-01T21:16:22.453Z,101015.00
2018-05-01T21:18:50.847Z,101025.93
2018-05-01T21:21:17.717Z,101024.20
2018-05-01T21:23:44.639Z,101027.70
2018-05-01T21:26:11.522Z,101031.17
2018-05-01T21:28:38.402Z,101032.48
2018-05-01T21:31:05.305Z,101024.19
2018-05-01T21:33:32.180Z,101028.55
2018-05-01T21:35:59.052Z,101025.48
2018-05-01T21:38:25.945Z,101029.38
2018-05-01T21:40:52.824Z,101041.61
2018-05-01T21:43:19.697Z,101045.95
2018-05-01T21:45:46.578Z,101045.08
2018-05-01T21:48:13.485Z,101047.67
2018-05-01T21:50:40.344Z,101053.77
2018-05-01T21:53:07.225Z,101052.92
2018-05-01T21:55:34.105Z,101062.51
2018-05-01T21:58:00.972Z,101065.09
2018-05-01T22:00:27.858Z,101079.41
2018-05-01T22:02:54.726Z,101080.39
2018-05-01T22:05:21.590Z,101090.06
2018-05-01T22:07:48.473Z,101094.91
2018-05-01T22:10:15.377Z,101101.03
2018-05-01T22:12:42.246Z,101112.84
2018-05-01T22:15:09.137Z,101122.86
2018-05-01T22:17:36.011Z,101129.91
2018-05-01T22:20:02.912Z,101132.95
2018-05-01T22:22:29.788Z,101137.31
2018-05-01T22:24:56.674Z,101148.26
2018-05-01T22:27:23.554Z,101153.48
2018-05-01T22:29:50.441Z,101158.73
2018-05-01T22:32:17.322Z,101153.50
2018-05-01T22:34:44.195Z,101154.80
2018-05-01T22:37:11.069Z,101161.33
2018-05-01T22:39:37.970Z,101155.19
2018-05-01T22:42:04.859Z,101164.40
2018-05-01T22:44:31.728Z,101156.09
2018-05-01T22:46:58.613Z,101164.38
2018-05-01T22:49:25.544Z,101161.34
2018-05-01T22:51:52.382Z,101159.11
2018-05-01T22:54:19.297Z,101167.39
2018-05-01T22:56:46.184Z,101170.03
2018-05-01T22:59:13.069Z,101172.20
2018-05-01T23:01:39.977Z,101173.06
2018-05-01T23:04:06.855Z,101182.27
2018-05-01T23:06:33.748Z,101182.68
2018-05-01T23:09:00.640Z,101186.17
2018-05-01T23:11:27.532Z,101185.70
2018-05-01T23:13:54.417Z,101197.49
2018-05-01T23:16:21.325Z,101191.42
2018-05-01T23:18:48.220Z,101194.03
2018-05-01T23:21:15.121Z,101195.78
2018-05-01T23:23:41.999Z,101191.42
2018-05-01T23:26:08.895Z,101183.95
2018-05-01T23:28:35.795Z,101178.70
2018-05-01T23:31:02.700Z,101177.82
2018-05-01T23:33:29.585Z,101183.03
2018-05-01T23:35:56.472Z,101185.63
2018-05-01T23:38:23.369Z,101191.28
2018-05-01T23:40:50.259Z,101200.92
2018-05-01T23:43:17.149Z,101205.29
2018-05-01T23:45:44.032Z,101206.20
2018-05-01T23:48:10.904Z,101205.75
2018-05-01T23:50:37.797Z,101214.06
2018-05-01T23:53:04.675Z,101204.84
2018-05-01T23:55:31.553Z,101207.02
2018-05-01T23:57:58.432Z,101210.93
